Time;durP1;ratioP1;P1;durP2;ratioP2;P2;SDS_P1;SDS_P2;PMS_P1;PMS_P2;Temp;Humidity;BMP_temperature;BMP_pressure;BME280_temperature;BME280_humidity;BME280_pressure;Samples;Min_cycle;Max_cycle;Signal;HPM_P1;HPM_P2
2023/04/20 00:00:36;;;;;;;21.52;8.82;;;;;;;7.37;nan;100249.94;5039648;28;20542;-83
2023/04/20 00:03:20;;;;;;;20.73;7.82;;;;;;;7.41;nan;100251.28;5052731;28;20068;-84
2023/04/20 00:06:04;;;;;;;20.70;8.90;;;;;;;7.50;nan;100236.53;5036781;28;20407;-84
2023/04/20 00:08:48;;;;;;;18.67;7.72;;;;;;;7.60;nan;100239.94;5039788;28;20076;-83
2023/04/20 00:11:32;;;;;;;21.92;8.80;;;;;;;7.48;nan;100241.09;5036459;28;20048;-83
2023/04/20 00:14:16;;;;;;;24.35;8.98;;;;;;;7.31;nan;100247.91;5042953;28;20108;-85
2023/04/20 00:17:00;;;;;;;18.30;8.63;;;;;;;7.38;nan;100243.75;5051756;28;20102;-85
2023/04/20 00:19:45;;;;;;;20.48;8.30;;;;;;;7.39;nan;100250.59;5047879;28;20091;-84
2023/04/20 00:22:29;;;;;;;20.10;8.35;;;;;;;7.32;nan;100249.53;5047505;28;20048;-84
2023/04/20 00:25:13;;;;;;;20.95;8.63;;;;;;;7.35;nan;100244.03;5050810;28;20049;-84
2023/04/20 00:27:58;;;;;;;23.52;9.00;;;;;;;7.45;nan;100249.22;5052545;28;20044;-85
2023/04/20 00:30:42;;;;;;;18.25;8.93;;;;;;;7.26;nan;100251.75;5060337;28;20043;-84
2023/04/20 00:33:26;;;;;;;20.08;8.95;;;;;;;7.35;nan;100250.06;5046612;28;20040;-84
2023/04/20 00:36:10;;;;;;;26.23;8.90;;;;;;;7.39;nan;100250.59;5056492;28;20440;-84
2023/04/20 00:38:54;;;;;;;17.10;9.65;;;;;;;7.50;nan;100250.44;5061812;28;20446;-84
2023/04/20 00:41:38;;;;;;;21.60;8.65;;;;;;;7.46;nan;100249.06;5048180;28;20099;-83
2023/04/20 00:44:22;;;;;;;22.10;9.27;;;;;;;7.35;nan;100249.25;5044722;28;20374;-84
2023/04/20 00:47:06;;;;;;;18.35;8.63;;;;;;;7.28;nan;100243.78;5043935;28;20037;-86
2023/04/20 00:49:51;;;;;;;25.88;10.07;;;;;;;7.26;nan;100245.72;5053909;28;20040;-85
2023/04/20 00:52:35;;;;;;;25.38;9.80;;;;;;;7.00;nan;100239.31;5045149;28;20613;-85
2023/04/20 00:55:21;;;;;;;16.00;8.13;;;;;;;7.50;nan;100239.97;5035755;28;20092;-85
2023/04/20 00:58:05;;;;;;;24.80;9.95;;;;;;;7.50;nan;100241.75;5041838;28;20107;-84
2023/04/20 01:00:49;;;;;;;24.80;9.80;;;;;;;7.13;nan;100232.97;5049560;28;20047;-86
2023/04/20 01:03:34;;;;;;;28.13;10.40;;;;;;;7.37;nan;100229.03;5044140;28;20130;-85
2023/04/20 01:06:18;;;;;;;20.77;10.13;;;;;;;7.18;nan;100227.34;5042359;28;20048;-85
2023/04/20 01:09:02;;;;;;;23.67;10.07;;;;;;;7.52;nan;100224.16;5044712;28;21104;-85
2023/04/20 01:11:46;;;;;;;24.60;9.55;;;;;;;7.37;nan;100221.19;5040484;28;20084;-84
2023/04/20 01:14:30;;;;;;;22.02;9.27;;;;;;;7.12;nan;100219.09;5038658;28;20045;-84
2023/04/20 01:17:14;;;;;;;21.02;9.88;;;;;;;7.51;nan;100218.13;5039078;28;20095;-85
2023/04/20 01:19:59;;;;;;;25.23;10.70;;;;;;;7.46;nan;100209.06;5038596;28;20118;-84
2023/04/20 01:22:45;;;;;;;21.50;10.10;;;;;;;7.47;nan;100203.72;5041846;28;20040;-84
2023/04/20 01:25:30;;;;;;;31.08;11.10;;;;;;;7.74;nan;100209.88;5042661;28;20519;-85
2023/04/20 01:28:14;;;;;;;19.08;9.23;;;;;;;7.79;nan;100202.41;5046492;28;20093;-83
2023/04/20 01:30:58;;;;;;;37.40;10.43;;;;;;;7.81;nan;100204.88;5046219;28;20517;-85
2023/04/20 01:33:42;;;;;;;25.95;10.52;;;;;;;8.06;nan;100205.13;5041705;28;20270;-85
2023/04/20 01:36:26;;;;;;;18.30;10.40;;;;;;;8.06;nan;100202.50;5040867;28;20522;-84
2023/04/20 01:39:11;;;;;;;22.05;9.68;;;;;;;8.20;nan;100209.00;5045107;28;20043;-85
2023/04/20 01:41:55;;;;;;;21.00;9.35;;;;;;;8.04;nan;100197.41;5046313;28;20044;-85
2023/04/20 01:44:39;;;;;;;24.02;9.13;;;;;;;8.13;nan;100193.91;5043206;28;20163;-85
2023/04/20 01:47:23;;;;;;;23.27;10.65;;;;;;;8.05;nan;100188.59;5044489;28;20507;-85
2023/04/20 01:50:07;;;;;;;22.27;9.20;;;;;;;8.35;nan;100194.41;5040427;28;20044;-85
2023/04/20 01:52:51;;;;;;;22.40;10.45;;;;;;;8.20;nan;100203.78;5039723;28;20052;-84
2023/04/20 01:55:35;;;;;;;23.08;9.85;;;;;;;8.01;nan;100197.72;5044517;28;20144;-84
2023/04/20 01:58:19;;;;;;;20.33;9.70;;;;;;;8.51;nan;100192.94;5039355;28;20494;-85
2023/04/20 02:01:03;;;;;;;27.23;9.82;;;;;;;8.46;nan;100184.69;5041783;28;20064;-85
2023/04/20 02:03:48;;;;;;;24.88;9.25;;;;;;;8.44;nan;100180.41;5041091;28;20406;-85
2023/04/20 02:06:32;;;;;;;25.58;10.00;;;;;;;8.22;nan;100183.50;5042641;28;20041;-85
2023/04/20 02:09:15;;;;;;;22.05;9.77;;;;;;;8.27;nan;100176.06;5044311;28;20036;-84
2023/04/20 02:12:00;;;;;;;23.05;9.55;;;;;;;8.30;nan;100183.59;5047169;28;20407;-83
2023/04/20 02:14:44;;;;;;;18.83;9.23;;;;;;;8.14;nan;100174.63;5043578;28;20075;-83
2023/04/20 02:17:28;;;;;;;27.50;10.93;;;;;;;8.00;nan;100186.44;5042483;28;20044;-83
2023/04/20 02:20:13;;;;;;;23.55;9.60;;;;;;;8.15;nan;100168.44;5042065;28;20140;-83
2023/04/20 02:22:57;;;;;;;28.98;11.55;;;;;;;8.13;nan;100175.59;5037212;28;20123;-83
2023/04/20 02:25:41;;;;;;;27.42;10.25;;;;;;;8.21;nan;100171.41;5037932;28;20055;-82
2023/04/20 02:28:25;;;;;;;32.13;10.40;;;;;;;8.03;nan;100172.22;5042314;28;20044;-82
2023/04/20 02:31:09;;;;;;;25.73;10.05;;;;;;;8.05;nan;100175.53;5041425;28;21902;-82
2023/04/20 02:33:53;;;;;;;26.63;10.32;;;;;;;8.11;nan;100166.25;5039510;28;20048;-82
2023/04/20 02:36:37;;;;;;;30.48;9.50;;;;;;;8.22;nan;100173.06;5043889;28;20757;-82
2023/04/20 02:39:20;;;;;;;28.85;11.70;;;;;;;8.08;nan;100175.25;5038878;28;21921;-84
2023/04/20 02:42:05;;;;;;;26.73;9.75;;;;;;;8.31;nan;100166.09;5045794;28;20055;-84
2023/04/20 02:44:49;;;;;;;31.50;10.63;;;;;;;7.95;nan;100169.56;5033930;28;20047;-84
2023/04/20 02:47:33;;;;;;;21.63;9.48;;;;;;;8.33;nan;100164.13;5037865;28;20051;-85
2023/04/20 02:50:17;;;;;;;24.60;9.50;;;;;;;8.06;nan;100164.13;5043235;28;20449;-84
2023/04/20 02:53:01;;;;;;;25.23;9.88;;;;;;;8.11;nan;100161.88;5033519;28;20060;-84
2023/04/20 02:55:45;;;;;;;26.80;10.15;;;;;;;7.43;nan;100169.19;5043569;28;20099;-84
2023/04/20 02:58:29;;;;;;;34.35;10.38;;;;;;;7.82;nan;100152.44;5047275;28;20052;-84
2023/04/20 03:01:13;;;;;;;31.58;11.52;;;;;;;8.20;nan;100160.13;5046306;28;20039;-84
2023/04/20 03:03:57;;;;;;;31.00;10.32;;;;;;;7.93;nan;100154.00;5048268;28;20067;-84
2023/04/20 03:06:41;;;;;;;31.65;11.07;;;;;;;7.76;nan;100155.66;5042810;28;20119;-84
2023/04/20 03:09:25;;;;;;;27.70;9.45;;;;;;;7.67;nan;100144.31;5041302;28;20531;-85
2023/04/20 03:12:09;;;;;;;27.48;10.45;;;;;;;7.73;nan;100161.19;5038067;28;20088;-84
2023/04/20 03:14:53;;;;;;;35.60;11.07;;;;;;;7.92;nan;100152.38;5043613;28;20540;-84
2023/04/20 03:17:37;;;;;;;40.13;12.75;;;;;;;7.88;nan;100156.25;5042029;28;20035;-84
2023/04/20 03:20:22;;;;;;;29.40;12.98;;;;;;;7.96;nan;100160.75;5043874;28;20151;-84
2023/04/20 03:23:06;;;;;;;36.72;14.73;;;;;;;7.78;nan;100148.47;5038773;28;20040;-84
2023/04/20 03:25:50;;;;;;;44.78;16.13;;;;;;;7.46;nan;100152.41;5037294;28;20403;-83
2023/04/20 03:28:34;;;;;;;43.20;17.50;;;;;;;7.83;nan;100154.09;5042557;28;20087;-83
2023/04/20 03:31:18;;;;;;;39.08;17.55;;;;;;;7.97;nan;100154.53;5039145;28;20167;-83
2023/04/20 03:34:02;;;;;;;50.20;17.42;;;;;;;7.80;nan;100153.56;5040214;28;20498;-84
2023/04/20 03:36:46;;;;;;;45.95;18.02;;;;;;;7.73;nan;100142.88;5043338;28;20507;-85
2023/04/20 03:39:30;;;;;;;41.85;19.73;;;;;;;7.55;nan;100146.31;5044666;28;20083;-85
2023/04/20 03:42:14;;;;;;;50.85;19.73;;;;;;;7.90;nan;100156.13;5044499;28;20120;-84
2023/04/20 03:44:59;;;;;;;42.47;18.98;;;;;;;8.00;nan;100157.69;5044675;28;20044;-86
2023/04/20 03:47:42;;;;;;;41.55;18.27;;;;;;;8.16;nan;100156.19;5043416;28;20044;-85
2023/04/20 03:50:27;;;;;;;48.10;19.83;;;;;;;7.65;nan;100161.09;5043494;28;20449;-84
2023/04/20 03:53:11;;;;;;;45.10;19.40;;;;;;;8.02;nan;100157.53;5038940;28;20043;-84
2023/04/20 03:55:55;;;;;;;39.95;20.60;;;;;;;7.71;nan;100166.53;5042189;28;20068;-85
2023/04/20 03:58:39;;;;;;;45.00;19.83;;;;;;;8.09;nan;100157.75;5042272;28;20094;-85
2023/04/20 04:01:23;;;;;;;58.17;22.23;;;;;;;8.00;nan;100154.25;5045920;28;20515;-85
2023/04/20 04:04:07;;;;;;;50.28;21.17;;;;;;;8.01;nan;100158.50;5040015;28;20123;-84
2023/04/20 04:06:52;;;;;;;53.58;21.98;;;;;;;8.10;nan;100156.78;5043031;28;20110;-84
2023/04/20 04:09:35;;;;;;;45.65;22.95;;;;;;;7.93;nan;100158.44;5044389;28;20041;-84
2023/04/20 04:12:20;;;;;;;56.58;22.42;;;;;;;7.90;nan;100154.31;5043019;28;20043;-85
2023/04/20 04:15:04;;;;;;;55.38;22.90;;;;;;;8.28;nan;100157.56;4994088;28;1278133;-84
2023/04/20 04:17:48;;;;;;;52.45;23.20;;;;;;;8.01;nan;100155.88;5043432;28;20048;-84
2023/04/20 04:20:32;;;;;;;57.85;24.63;;;;;;;8.13;nan;100162.53;5045854;28;20453;-84
2023/04/20 04:23:16;;;;;;;47.25;23.52;;;;;;;8.23;nan;100159.00;5044605;28;20106;-85
2023/04/20 04:26:01;;;;;;;47.55;23.73;;;;;;;8.25;nan;100157.03;5045471;28;20552;-85
2023/04/20 04:28:45;;;;;;;59.28;24.30;;;;;;;8.11;nan;100156.63;5044353;28;20116;-85
2023/04/20 04:31:31;;;;;;;54.33;24.35;;;;;;;7.82;nan;100160.28;5042881;28;20103;-85
2023/04/20 04:34:17;;;;;;;58.47;22.92;;;;;;;8.18;nan;100161.25;5044100;28;20402;-84
2023/04/20 04:37:01;;;;;;;60.72;25.73;;;;;;;7.80;nan;100164.84;5044096;28;20044;-84
2023/04/20 04:39:45;;;;;;;60.45;25.83;;;;;;;7.80;nan;100164.84;5042872;28;20102;-85
2023/04/20 04:42:30;;;;;;;50.42;23.08;;;;;;;8.18;nan;100156.84;5040850;28;20094;-85
2023/04/20 04:45:14;;;;;;;57.22;25.17;;;;;;;8.17;nan;100151.75;5042377;28;20047;-84
2023/04/20 04:47:58;;;;;;;59.05;25.48;;;;;;;7.69;nan;100159.84;5039614;28;20067;-84
2023/04/20 04:50:42;;;;;;;55.80;25.27;;;;;;;8.19;nan;100153.28;5041671;28;20052;-84
2023/04/20 04:53:26;;;;;;;65.13;26.92;;;;;;;7.98;nan;100151.78;5045743;28;20051;-84
2023/04/20 04:56:12;;;;;;;68.53;27.10;;;;;;;8.20;nan;100164.53;5046088;28;20086;-84
2023/04/20 04:58:56;;;;;;;62.78;27.85;;;;;;;8.08;nan;100151.72;5051954;28;20087;-86
2023/04/20 05:01:40;;;;;;;63.80;27.60;;;;;;;8.19;nan;100155.06;5047633;28;20570;-83
2023/04/20 05:04:24;;;;;;;59.80;26.55;;;;;;;8.53;nan;100173.47;5041762;28;20117;-84
2023/04/20 05:07:12;;;;;;;56.75;27.95;;;;;;;8.24;nan;100176.34;5042226;28;20080;-84
2023/04/20 05:09:56;;;;;;;68.82;27.63;;;;;;;8.22;nan;100178.28;5041631;28;20048;-84
2023/04/20 05:12:40;;;;;;;66.22;27.58;;;;;;;8.38;nan;100180.22;5042698;28;20462;-85
2023/04/20 05:15:25;;;;;;;58.00;26.25;;;;;;;8.41;nan;100177.31;5039712;28;20051;-85
2023/04/20 05:18:09;;;;;;;69.93;25.70;;;;;;;8.26;nan;100169.19;5041401;28;20120;-86
2023/04/20 05:20:54;;;;;;;52.38;25.77;;;;;;;8.69;nan;100183.25;5040219;28;20121;-86
2023/04/20 05:23:38;;;;;;;62.05;27.38;;;;;;;8.10;nan;100185.53;5042057;28;20044;-86
2023/04/20 05:26:22;;;;;;;58.42;27.10;;;;;;;8.36;nan;100185.59;5041716;28;20051;-86
2023/04/20 05:29:06;;;;;;;53.95;26.17;;;;;;;8.26;nan;100179.66;5044794;28;20131;-86
2023/04/20 05:31:50;;;;;;;61.45;25.33;;;;;;;8.19;nan;100184.66;5040101;28;20130;-87
2023/04/20 05:34:34;;;;;;;57.67;27.98;;;;;;;8.12;nan;100176.59;5041792;28;20069;-86
2023/04/20 05:37:18;;;;;;;54.67;25.23;;;;;;;8.04;nan;100192.19;5044996;28;20120;-87
2023/04/20 05:40:03;;;;;;;62.85;26.25;;;;;;;7.81;nan;100197.84;5037727;28;20503;-87
2023/04/20 05:42:48;;;;;;;52.28;25.42;;;;;;;8.23;nan;100190.38;5035522;28;20510;-85
2023/04/20 05:45:33;;;;;;;59.90;26.20;;;;;;;8.42;nan;100192.03;5038504;28;20041;-86
2023/04/20 05:48:17;;;;;;;54.28;26.02;;;;;;;8.69;nan;100191.09;5039619;28;20122;-87
2023/04/20 05:51:01;;;;;;;53.90;25.92;;;;;;;8.34;nan;100187.53;5046053;28;20052;-87
2023/04/20 05:53:45;;;;;;;60.30;26.60;;;;;;;8.80;nan;100191.81;5039309;28;20110;-86
2023/04/20 05:56:29;;;;;;;57.03;25.45;;;;;;;8.71;nan;100194.41;5039182;28;20044;-84
2023/04/20 05:59:14;;;;;;;47.20;24.77;;;;;;;8.51;nan;100192.94;5046875;28;20103;-86
2023/04/20 06:01:58;;;;;;;49.20;26.45;;;;;;;9.00;nan;100198.47;5039192;28;20060;-86
2023/04/20 06:04:42;;;;;;;84.28;32.42;;;;;;;8.77;nan;100197.38;5039951;28;20092;-82
2023/04/20 06:07:27;;;;;;;53.65;27.98;;;;;;;8.96;nan;100202.38;5049565;28;20063;-89
2023/04/20 06:10:11;;;;;;;65.25;31.67;;;;;;;9.28;nan;100198.31;5049235;28;20094;-85
2023/04/20 06:12:54;;;;;;;51.38;25.98;;;;;;;8.59;nan;100200.84;5046737;28;20095;-82
2023/04/20 06:15:38;;;;;;;50.47;25.83;;;;;;;9.13;nan;100202.47;5045467;28;20056;-85
2023/04/20 06:18:25;;;;;;;61.17;27.70;;;;;;;8.59;nan;100200.84;5043114;28;20052;-81
2023/04/20 06:21:10;;;;;;;57.55;25.77;;;;;;;8.67;nan;100200.91;5038633;28;20095;-84
2023/04/20 06:23:54;;;;;;;64.03;28.75;;;;;;;9.07;nan;100197.88;5050113;28;20048;-86
2023/04/20 06:26:39;;;;;;;63.15;28.00;;;;;;;9.38;nan;100199.97;5043226;28;20403;-86
2023/04/20 06:29:23;;;;;;;58.42;26.73;;;;;;;9.39;nan;100198.97;5040151;28;20092;-85
2023/04/20 06:32:06;;;;;;;53.47;25.08;;;;;;;8.91;nan;100206.44;5043253;28;20048;-82
2023/04/20 06:34:51;;;;;;;51.30;26.42;;;;;;;9.09;nan;100191.47;5040779;28;20388;-81
2023/04/20 06:37:35;;;;;;;47.90;26.42;;;;;;;9.43;nan;100197.69;5038137;28;20075;-83
2023/04/20 06:40:19;;;;;;;57.17;26.02;;;;;;;9.10;nan;100200.19;5058922;28;20536;-84
2023/04/20 06:43:03;;;;;;;48.92;24.95;;;;;;;9.35;nan;100203.75;5050930;28;20108;-83
2023/04/20 06:45:47;;;;;;;49.80;24.60;;;;;;;9.90;nan;100192.91;5038234;28;20052;-83
2023/04/20 06:48:31;;;;;;;50.03;24.25;;;;;;;9.47;nan;100183.31;5013512;28;20514;-82
2023/04/20 06:51:15;;;;;;;47.70;23.42;;;;;;;8.97;nan;100188.31;5013662;28;20044;-81
2023/04/20 06:53:59;;;;;;;49.45;24.48;;;;;;;10.05;nan;100188.66;5029732;28;20052;-84
2023/04/20 06:56:43;;;;;;;42.85;22.52;;;;;;;10.43;nan;100180.34;5040833;28;20064;-84
2023/04/20 06:59:27;;;;;;;44.80;23.02;;;;;;;10.11;nan;100180.13;5040373;28;20076;-83
2023/04/20 07:02:11;;;;;;;44.67;20.70;;;;;;;9.58;nan;100174.31;5020332;28;20039;-84
2023/04/20 07:05:01;;;;;;;41.70;21.30;;;;;;;9.68;nan;100180.22;5057161;28;20414;-83
2023/04/20 07:07:45;;;;;;;36.95;20.30;;;;;;;10.43;nan;100178.53;5053236;28;20551;-84
2023/04/20 07:10:29;;;;;;;40.30;20.88;;;;;;;10.56;nan;100182.44;5053814;28;20570;-85
2023/04/20 07:13:13;;;;;;;35.25;19.27;;;;;;;9.63;nan;100181.69;5053964;28;20106;-86
2023/04/20 07:15:57;;;;;;;30.45;19.33;;;;;;;10.36;nan;100177.50;5054397;28;20099;-84
2023/04/20 07:18:44;;;;;;;43.67;21.23;;;;;;;10.08;nan;100185.72;5055335;28;20044;-83
2023/04/20 07:21:30;;;;;;;35.67;19.77;;;;;;;10.35;nan;100173.25;5056783;28;20099;-82
2023/04/20 07:24:14;;;;;;;37.10;19.50;;;;;;;11.09;nan;100174.13;5053756;28;20052;-83
2023/04/20 07:26:58;;;;;;;33.67;18.85;;;;;;;11.09;nan;100166.25;5058933;28;20541;-84
2023/04/20 07:29:42;;;;;;;32.67;17.83;;;;;;;11.22;nan;100161.28;5045417;28;20152;-84
2023/04/20 07:32:26;;;;;;;36.47;16.75;;;;;;;10.63;nan;100175.56;5041196;28;20124;-86
2023/04/20 07:35:10;;;;;;;33.40;15.95;;;;;;;11.20;nan;100165.88;5042521;28;20064;-90
2023/04/20 07:37:54;;;;;;;27.20;15.93;;;;;;;11.48;nan;100169.84;5041874;28;20146;-86
2023/04/20 07:40:38;;;;;;;31.40;15.90;;;;;;;11.77;nan;100171.81;5041279;28;20562;-87
2023/04/20 07:43:22;;;;;;;35.90;15.75;;;;;;;11.98;nan;100165.91;5045269;28;20052;-87
2023/04/20 07:46:06;;;;;;;31.52;16.58;;;;;;;11.99;nan;100161.50;5042672;28;20557;-86
2023/04/20 07:48:50;;;;;;;21.15;14.20;;;;;;;12.01;nan;100162.16;5038531;28;20045;-89
2023/04/20 07:51:35;;;;;;;31.08;14.60;;;;;;;12.68;nan;100159.78;5046284;28;20234;-85
2023/04/20 07:54:19;;;;;;;31.60;15.25;;;;;;;12.10;nan;100158.47;5044612;28;20170;-77
2023/04/20 07:57:03;;;;;;;31.73;15.60;;;;;;;12.16;nan;100159.56;5039503;28;20039;-76
2023/04/20 07:59:47;;;;;;;28.23;14.07;;;;;;;11.68;nan;100165.78;5036656;28;20060;-76
2023/04/20 08:02:31;;;;;;;30.23;15.25;;;;;;;12.14;nan;100158.94;5036416;28;20124;-77
2023/04/20 08:05:16;;;;;;;31.90;16.00;;;;;;;12.07;nan;100161.44;5035741;28;20057;-76
2023/04/20 08:08:00;;;;;;;25.90;14.40;;;;;;;12.00;nan;100157.88;5033028;28;20550;-78
2023/04/20 08:10:44;;;;;;;38.60;16.13;;;;;;;12.11;nan;100159.28;5044465;28;20039;-78
2023/04/20 08:13:28;;;;;;;24.98;15.15;;;;;;;11.95;nan;100157.56;5041689;28;20386;-76
2023/04/20 08:16:12;;;;;;;27.17;16.45;;;;;;;11.39;nan;100153.28;5040057;28;20052;-77
2023/04/20 08:18:56;;;;;;;35.25;17.45;;;;;;;11.21;nan;100151.75;5040966;28;20114;-78
2023/04/20 08:21:40;;;;;;;34.10;17.42;;;;;;;11.53;nan;100147.31;5042756;28;20079;-80
2023/04/20 08:24:24;;;;;;;30.45;17.27;;;;;;;11.54;nan;100148.13;5036476;28;20127;-81
2023/04/20 08:27:08;;;;;;;30.08;14.02;;;;;;;11.55;nan;100134.78;5046281;28;20047;-81
2023/04/20 08:29:52;;;;;;;27.60;15.02;;;;;;;11.17;nan;100139.91;5039640;28;20079;-81
2023/04/20 08:32:36;;;;;;;29.77;15.13;;;;;;;11.18;nan;100146.81;5041988;28;20167;-79
2023/04/20 08:35:20;;;;;;;27.50;14.00;;;;;;;11.26;nan;100141.53;5031490;28;20206;-79
2023/04/20 08:38:04;;;;;;;27.83;13.85;;;;;;;11.10;nan;100141.59;5041646;28;20048;-79
2023/04/20 08:40:49;;;;;;;31.67;11.88;;;;;;;11.27;nan;100137.09;5039848;28;20040;-79
2023/04/20 08:43:35;;;;;;;24.00;12.00;;;;;;;11.62;nan;100137.56;5031355;28;20111;-80
2023/04/20 08:46:19;;;;;;;23.92;12.70;;;;;;;11.12;nan;100137.84;5033729;28;20044;-78
2023/04/20 08:49:04;;;;;;;28.70;12.32;;;;;;;11.02;nan;100133.78;5040402;28;20356;-82
2023/04/20 08:51:48;;;;;;;24.05;12.95;;;;;;;11.48;nan;100138.28;5039909;28;20438;-83
2023/04/20 08:54:32;;;;;;;30.48;12.70;;;;;;;11.24;nan;100135.63;5034329;28;20048;-81
2023/04/20 08:57:16;;;;;;;22.48;11.77;;;;;;;11.45;nan;100136.84;5042167;28;20036;-79
2023/04/20 09:00:04;;;;;;;23.23;12.20;;;;;;;12.04;nan;100129.41;5040941;28;20040;-82
2023/04/20 09:02:51;;;;;;;25.65;10.07;;;;;;;12.30;nan;100131.63;5036343;28;20163;-81
2023/04/20 09:05:34;;;;;;;19.02;8.95;;;;;;;12.77;nan;100123.59;5040154;28;20094;-81
2023/04/20 09:08:30;;;;;;;15.02;7.85;;;;;;;12.45;nan;100118.50;5042200;28;20040;-79
2023/04/20 09:11:25;;;;;;;21.90;7.38;;;;;;;11.97;nan;100121.34;5033882;28;20453;-79
2023/04/20 09:14:11;;;;;;;14.93;7.88;;;;;;;12.03;nan;100120.69;5045014;28;20080;-80
2023/04/20 09:17:03;;;;;;;22.77;7.50;;;;;;;12.27;nan;100118.84;5043121;28;20133;-80
2023/04/20 09:19:52;;;;;;;19.77;7.53;;;;;;;12.23;nan;100122.84;5037739;28;20056;-80
2023/04/20 09:22:37;;;;;;;16.95;7.43;;;;;;;12.37;nan;100121.22;5038469;28;20060;-80
2023/04/20 09:25:25;;;;;;;16.73;7.15;;;;;;;12.67;nan;100108.88;5037044;28;20053;-82
2023/04/20 09:28:10;;;;;;;20.80;5.97;;;;;;;13.13;nan;100104.38;5041212;28;20048;-81
2023/04/20 09:30:54;;;;;;;16.45;6.28;;;;;;;12.59;nan;100103.72;5041537;28;20509;-80
2023/04/20 09:33:38;;;;;;;15.93;5.95;;;;;;;12.37;nan;100103.59;5036812;28;20510;-80
2023/04/20 09:36:22;;;;;;;11.55;5.60;;;;;;;12.25;nan;100097.16;5036707;28;20036;-80
2023/04/20 09:39:15;;;;;;;27.02;7.50;;;;;;;12.43;nan;100100.25;5041381;28;20119;-79
2023/04/20 09:42:03;;;;;;;11.33;4.20;;;;;;;12.70;nan;100097.19;5041034;28;20040;-79
2023/04/20 09:44:49;;;;;;;12.50;5.85;;;;;;;12.96;nan;100090.59;5046340;28;20060;-79
2023/04/20 09:47:36;;;;;;;12.38;5.50;;;;;;;12.94;nan;100080.25;5044288;28;20429;-79
2023/04/20 09:50:20;;;;;;;16.30;5.43;;;;;;;12.98;nan;100076.25;5037880;28;20056;-79
2023/04/20 09:53:04;;;;;;;11.35;5.03;;;;;;;13.29;nan;100077.00;5044622;28;20206;-79
2023/04/20 09:55:53;;;;;;;18.15;6.32;;;;;;;12.89;nan;100060.72;5046883;28;20071;-79
2023/04/20 09:58:37;;;;;;;15.20;5.55;;;;;;;12.84;nan;100058.66;5039129;28;20052;-79
2023/04/20 10:01:22;;;;;;;11.75;5.50;;;;;;;12.86;nan;100067.19;5040481;28;20055;-79
2023/04/20 10:04:09;;;;;;;12.18;4.82;;;;;;;13.06;nan;100061.31;5041745;28;20148;-78
2023/04/20 10:07:02;;;;;;;11.40;4.05;;;;;;;12.99;nan;100051.53;5040061;28;20064;-78
2023/04/20 10:09:46;;;;;;;7.77;4.63;;;;;;;13.05;nan;100059.69;5045191;28;20052;-78
2023/04/20 10:12:30;;;;;;;13.40;4.57;;;;;;;13.36;nan;100055.94;5040664;28;20608;-78
2023/04/20 10:15:15;;;;;;;11.32;4.55;;;;;;;13.28;nan;100065.63;5045060;28;20076;-78
2023/04/20 10:17:59;;;;;;;16.02;5.60;;;;;;;13.25;nan;100049.34;5043294;28;20107;-78
2023/04/20 10:20:43;;;;;;;12.27;5.10;;;;;;;13.62;nan;100041.44;5033926;28;20068;-78
2023/04/20 10:23:28;;;;;;;8.45;4.63;;;;;;;13.94;nan;100037.41;5034347;28;20098;-79
2023/04/20 10:26:12;;;;;;;11.48;5.10;;;;;;;13.76;nan;100045.00;5039806;28;20051;-79
2023/04/20 10:28:56;;;;;;;11.85;5.35;;;;;;;14.31;nan;100037.25;5038268;28;20407;-79
2023/04/20 10:31:41;;;;;;;15.93;5.05;;;;;;;14.41;nan;100042.16;5039575;28;20126;-79
2023/04/20 10:34:32;;;;;;;10.95;4.28;;;;;;;14.36;nan;100034.84;5037738;28;20040;-79
2023/04/20 10:37:16;;;;;;;7.40;4.30;;;;;;;14.38;nan;100027.53;5032688;28;20155;-79
2023/04/20 10:40:01;;;;;;;9.70;4.18;;;;;;;13.99;nan;100035.00;5042297;28;20495;-79
2023/04/20 10:42:45;;;;;;;18.90;6.00;;;;;;;14.39;nan;100034.47;5036403;28;20068;-80
2023/04/20 10:45:37;;;;;;;11.27;4.95;;;;;;;14.51;nan;100020.69;5036838;28;20052;-79
2023/04/20 10:48:21;;;;;;;14.88;4.68;;;;;;;14.92;nan;100019.84;5033673;28;20078;-79
2023/04/20 10:51:09;;;;;;;7.75;5.00;;;;;;;15.02;nan;100016.03;5040525;28;20060;-80
2023/04/20 10:54:07;;;;;;;9.73;4.57;;;;;;;15.03;nan;100020.31;5035289;28;20078;-79
2023/04/20 10:56:52;;;;;;;10.80;4.93;;;;;;;15.21;nan;100020.53;5032656;28;20399;-80
2023/04/20 10:59:37;;;;;;;13.02;4.80;;;;;;;15.32;nan;100031.53;5042542;28;20503;-79
2023/04/20 11:02:21;;;;;;;9.18;4.00;;;;;;;15.37;nan;100019.34;5038484;28;20056;-80
2023/04/20 11:05:12;;;;;;;8.27;4.00;;;;;;;14.98;nan;100012.97;5039237;28;20052;-80
2023/04/20 11:07:59;;;;;;;9.52;4.60;;;;;;;14.45;nan;100016.19;5039739;28;20051;-79
2023/04/20 11:10:42;;;;;;;7.88;4.28;;;;;;;14.25;nan;100011.63;5031928;28;20152;-79
2023/04/20 11:13:28;;;;;;;8.93;4.05;;;;;;;14.47;nan;100015.00;5032497;28;20079;-79
2023/04/20 11:16:13;;;;;;;6.65;4.50;;;;;;;14.43;nan;100011.09;5036017;28;20060;-79
2023/04/20 11:18:58;;;;;;;6.57;4.13;;;;;;;14.32;nan;100007.19;5037927;28;20043;-79
2023/04/20 11:21:42;;;;;;;13.05;4.50;;;;;;;14.10;nan;100001.97;5039027;28;20049;-79
2023/04/20 11:24:28;;;;;;;8.10;4.10;;;;;;;14.09;nan;99996.91;5034740;28;20048;-79
2023/04/20 11:27:22;;;;;;;8.52;4.03;;;;;;;14.33;nan;99998.25;5036338;28;20179;-80
2023/04/20 11:30:08;;;;;;;5.43;4.22;;;;;;;14.21;nan;99990.06;5033779;28;20098;-79
2023/04/20 11:32:53;;;;;;;6.20;4.22;;;;;;;14.19;nan;99991.28;5037556;28;20042;-79
2023/04/20 11:35:40;;;;;;;5.30;3.50;;;;;;;14.61;nan;99984.16;5033400;28;20040;-79
2023/04/20 11:38:32;;;;;;;9.82;3.97;;;;;;;14.59;nan;99991.47;5038690;28;20044;-80
2023/04/20 11:41:17;;;;;;;5.97;3.65;;;;;;;14.76;nan;99975.31;5033250;28;20159;-80
2023/04/20 11:44:01;;;;;;;5.15;3.95;;;;;;;14.96;nan;99981.44;5037604;28;20091;-80
2023/04/20 11:46:47;;;;;;;4.63;3.60;;;;;;;14.58;nan;99981.91;5036471;28;20462;-79
2023/04/20 11:49:32;;;;;;;8.02;3.30;;;;;;;14.48;nan;99970.88;5048101;28;20147;-79
2023/04/20 11:52:16;;;;;;;8.55;3.50;;;;;;;14.38;nan;99966.81;5042409;28;20133;-80
2023/04/20 11:55:01;;;;;;;11.73;3.50;;;;;;;14.50;nan;99955.66;5040824;28;20048;-79
2023/04/20 11:57:45;;;;;;;10.25;3.50;;;;;;;14.58;nan;99947.56;5039258;28;20072;-80
2023/04/20 12:00:29;;;;;;;6.05;3.00;;;;;;;14.48;nan;99945.31;5044124;28;20040;-79
2023/04/20 12:03:13;;;;;;;3.45;2.70;;;;;;;14.59;nan;99951.84;5043890;28;20048;-79
2023/04/20 12:05:58;;;;;;;6.25;3.38;;;;;;;15.08;nan;99926.16;5040098;28;20119;-78
2023/04/20 12:08:42;;;;;;;7.05;3.40;;;;;;;15.64;nan;99931.22;5042826;28;20221;-80
2023/04/20 12:11:26;;;;;;;7.05;3.20;;;;;;;16.26;nan;99934.34;5044253;28;20136;-81
2023/04/20 12:14:10;;;;;;;13.43;3.60;;;;;;;15.62;nan;99941.19;5042771;28;20060;-79
2023/04/20 12:16:54;;;;;;;5.70;2.90;;;;;;;15.83;nan;99929.56;5045112;28;20140;-80
2023/04/20 12:19:38;;;;;;;4.85;2.58;;;;;;;16.26;nan;99931.69;5043895;28;20048;-80
2023/04/20 12:22:22;;;;;;;6.57;3.05;;;;;;;15.97;nan;99920.56;5044142;28;20047;-80
2023/04/20 12:25:07;;;;;;;10.00;3.00;;;;;;;16.03;nan;99915.50;5040406;28;20540;-79
2023/04/20 12:27:51;;;;;;;4.40;3.05;;;;;;;15.78;nan;99903.72;5041152;28;20038;-80
2023/04/20 12:30:35;;;;;;;4.80;2.97;;;;;;;15.79;nan;99907.97;5036875;28;20117;-82
2023/04/20 12:33:19;;;;;;;3.85;2.75;;;;;;;16.09;nan;99917.28;5043014;28;20395;-80
2023/04/20 12:36:04;;;;;;;6.72;2.60;;;;;;;15.45;nan;99923.09;5044270;28;20045;-80
2023/04/20 12:38:51;;;;;;;4.60;2.75;;;;;;;15.71;nan;99910.81;5037009;28;20064;-82
2023/04/20 12:41:35;;;;;;;7.28;3.20;;;;;;;15.77;nan;99914.50;5040010;28;20095;-80
2023/04/20 12:44:19;;;;;;;3.60;2.50;;;;;;;15.48;nan;99917.38;5045075;28;20044;-80
2023/04/20 12:47:03;;;;;;;4.07;2.50;;;;;;;15.37;nan;99912.72;5039303;28;20076;-80
2023/04/20 12:49:47;;;;;;;3.67;2.55;;;;;;;15.14;nan;99916.59;5045730;28;20044;-80
2023/04/20 12:52:31;;;;;;;5.45;2.60;;;;;;;14.94;nan;99911.28;5036410;28;20093;-80
2023/04/20 12:55:15;;;;;;;4.95;2.90;;;;;;;15.42;nan;99911.06;5043064;28;20044;-80
2023/04/20 12:57:58;;;;;;;5.05;3.05;;;;;;;15.46;nan;99903.53;5042369;28;20087;-80